createdAt,value
2022-10-17T00:01:51.239Z,16.90
2022-10-17T00:04:21.333Z,16.80
2022-10-17T00:06:56.659Z,16.70
2022-10-17T00:09:28.044Z,16.80
2022-10-17T00:12:03.687Z,16.80
2022-10-17T00:14:33.853Z,16.80
2022-10-17T00:17:10.128Z,16.60
2022-10-17T00:19:59.454Z,16.80
2022-10-17T00:22:29.622Z,16.70
2022-10-17T00:25:01.612Z,16.70
2022-10-17T00:27:35.411Z,16.70
2022-10-17T00:32:55.274Z,16.70
2022-10-17T00:35:26.485Z,16.60
2022-10-17T00:37:56.880Z,16.40
2022-10-17T00:40:29.048Z,16.30
2022-10-17T00:42:58.762Z,16.30
2022-10-17T00:45:31.736Z,16.30
2022-10-17T00:48:09.646Z,16.10
2022-10-17T00:50:43.648Z,15.90
2022-10-17T00:53:15.109Z,15.80
2022-10-17T00:55:55.015Z,15.70
2022-10-17T00:58:29.537Z,15.60
2022-10-17T01:01:08.650Z,15.60
2022-10-17T01:03:40.278Z,15.60
2022-10-17T01:06:11.823Z,15.90
2022-10-17T01:08:54.100Z,15.90
2022-10-17T01:11:35.111Z,15.90
2022-10-17T01:14:09.118Z,15.90
2022-10-17T01:16:49.188Z,15.80
2022-10-17T01:19:52.935Z,15.80
2022-10-17T01:22:32.628Z,15.80
2022-10-17T01:25:27.313Z,15.70
2022-10-17T01:28:33.313Z,15.60
2022-10-17T01:31:11.929Z,15.60
2022-10-17T01:33:48.544Z,15.50
2022-10-17T01:36:33.646Z,15.50
2022-10-17T01:39:11.858Z,15.40
2022-10-17T01:41:48.293Z,15.50
2022-10-17T01:44:29.195Z,15.80
2022-10-17T01:47:06.585Z,15.80
2022-10-17T01:49:42.869Z,15.80
2022-10-17T01:52:16.753Z,15.80
2022-10-17T01:54:50.975Z,15.70
2022-10-17T01:57:27.015Z,15.70
2022-10-17T02:00:03.088Z,15.60
2022-10-17T02:02:35.870Z,15.50
2022-10-17T02:05:06.560Z,15.40
2022-10-17T02:07:43.702Z,15.40
2022-10-17T02:10:23.650Z,15.30
2022-10-17T02:13:04.292Z,15.20
2022-10-17T02:15:55.218Z,15.00
2022-10-17T02:18:49.077Z,14.80
2022-10-17T02:24:22.107Z,14.70
2022-10-17T02:27:00.045Z,14.60
2022-10-17T02:29:36.970Z,14.50
2022-10-17T02:32:15.853Z,14.50
2022-10-17T02:34:51.294Z,14.40
2022-10-17T02:37:25.023Z,14.30
2022-10-17T02:39:55.696Z,14.20
2022-10-17T02:42:27.730Z,14.30
2022-10-17T02:45:03.632Z,14.20
2022-10-17T02:47:37.817Z,14.30
2022-10-17T02:50:13.485Z,14.30
2022-10-17T02:52:50.066Z,14.40
2022-10-17T02:55:28.121Z,14.50
2022-10-17T02:58:05.543Z,14.80
2022-10-17T03:00:37.317Z,15.00
2022-10-17T03:03:35.181Z,15.20
2022-10-17T03:06:06.638Z,15.30
2022-10-17T03:11:19.256Z,15.40
2022-10-17T03:13:51.842Z,15.50
2022-10-17T03:16:27.314Z,15.50
2022-10-17T03:18:57.401Z,15.30
2022-10-17T03:21:29.014Z,15.20
2022-10-17T03:24:02.982Z,15.00
2022-10-17T03:26:32.826Z,14.90
2022-10-17T03:29:02.982Z,14.80
2022-10-17T03:31:40.597Z,14.80
2022-10-17T03:34:18.530Z,14.80
2022-10-17T03:36:49.794Z,14.90
2022-10-17T03:39:25.409Z,14.90
2022-10-17T03:41:55.322Z,15.00
2022-10-17T03:44:25.754Z,14.90
2022-10-17T03:46:55.656Z,14.80
2022-10-17T03:49:29.170Z,14.80
2022-10-17T03:52:00.429Z,14.80
2022-10-17T03:54:31.769Z,14.80
2022-10-17T03:57:03.859Z,14.80
2022-10-17T03:59:41.808Z,14.70
2022-10-17T04:02:14.594Z,14.80
2022-10-17T04:04:48.733Z,14.80
2022-10-17T04:07:23.556Z,14.80
2022-10-17T04:09:53.687Z,14.70
2022-10-17T04:12:26.539Z,14.50
2022-10-17T04:17:41.547Z,14.20
2022-10-17T04:20:18.939Z,14.00
2022-10-17T04:22:50.081Z,13.80
2022-10-17T04:25:33.423Z,13.60
2022-10-17T04:28:15.002Z,13.60
2022-10-17T04:30:49.898Z,13.60
2022-10-17T04:33:29.581Z,13.60
2022-10-17T04:36:05.816Z,13.70
2022-10-17T04:38:41.583Z,13.70
2022-10-17T04:41:14.330Z,13.70
2022-10-17T04:43:51.527Z,13.80
2022-10-17T04:46:25.769Z,13.90
2022-10-17T04:48:57.125Z,14.00
2022-10-17T04:51:31.044Z,13.90
2022-10-17T04:54:02.204Z,13.90
2022-10-17T04:56:32.734Z,13.90
2022-10-17T04:59:06.106Z,13.80
2022-10-17T05:01:43.187Z,13.80
2022-10-17T05:04:14.939Z,13.80
2022-10-17T05:06:46.892Z,13.80
2022-10-17T05:09:25.840Z,13.70
2022-10-17T05:11:58.620Z,13.70
2022-10-17T05:14:32.150Z,13.60
2022-10-17T05:17:08.483Z,13.70
2022-10-17T05:19:39.262Z,13.60
2022-10-17T05:22:09.317Z,13.60
2022-10-17T05:24:41.644Z,13.50
2022-10-17T05:27:13.711Z,13.50
2022-10-17T05:29:46.291Z,13.50
2022-10-17T05:32:25.134Z,13.50
2022-10-17T05:34:57.992Z,13.60
2022-10-17T05:37:36.566Z,13.60
2022-10-17T05:40:18.829Z,13.60
2022-10-17T05:42:54.445Z,13.60
2022-10-17T05:45:24.150Z,13.60
2022-10-17T05:47:56.705Z,13.60
2022-10-17T05:50:29.334Z,13.50
2022-10-17T05:53:04.940Z,13.50
2022-10-17T05:55:55.253Z,13.50
2022-10-17T06:01:25.544Z,13.40
2022-10-17T06:04:01.013Z,13.30
2022-10-17T06:06:34.583Z,13.30
2022-10-17T06:09:05.961Z,13.40
2022-10-17T06:11:44.922Z,13.40
2022-10-17T06:14:15.038Z,13.40
2022-10-17T06:16:46.516Z,13.40
2022-10-17T06:19:18.791Z,13.40
2022-10-17T06:21:49.581Z,13.30
2022-10-17T06:24:19.637Z,13.30
2022-10-17T06:26:51.803Z,13.30
2022-10-17T06:29:22.296Z,13.30
2022-10-17T06:31:55.303Z,13.20
2022-10-17T06:34:29.078Z,13.30
2022-10-17T06:37:01.001Z,13.30
2022-10-17T06:39:35.921Z,13.30
2022-10-17T06:42:14.791Z,13.40
2022-10-17T06:44:44.535Z,13.50
2022-10-17T06:47:20.196Z,13.60
2022-10-17T06:49:50.711Z,13.70
2022-10-17T06:52:24.745Z,13.80
2022-10-17T06:54:56.647Z,13.90
2022-10-17T06:57:28.764Z,14.10
2022-10-17T06:59:58.919Z,14.30
2022-10-17T07:02:29.269Z,14.50
2022-10-17T07:05:01.960Z,14.70
2022-10-17T07:07:35.518Z,14.80
2022-10-17T07:10:08.556Z,15.00
2022-10-17T07:12:47.298Z,15.10
2022-10-17T07:15:24.109Z,15.20
2022-10-17T07:17:54.147Z,15.30
2022-10-17T07:20:27.653Z,15.40
2022-10-17T07:23:00.102Z,15.50
2022-10-17T07:25:34.168Z,15.60
2022-10-17T07:28:08.692Z,15.70
2022-10-17T07:30:38.349Z,15.70
2022-10-17T07:33:07.112Z,15.80
2022-10-17T07:35:40.786Z,15.80
2022-10-17T07:38:10.931Z,15.90
2022-10-17T07:40:40.754Z,16.00
2022-10-17T07:43:12.215Z,16.10
2022-10-17T07:45:42.179Z,16.20
2022-10-17T07:48:12.303Z,16.40
2022-10-17T07:50:42.919Z,16.50
2022-10-17T07:53:12.751Z,16.60
2022-10-17T07:55:44.721Z,16.80
2022-10-17T07:58:19.678Z,16.80
2022-10-17T08:00:51.013Z,16.90
2022-10-17T08:03:21.240Z,17.10
2022-10-17T08:05:51.279Z,17.30
2022-10-17T08:08:21.179Z,17.50
2022-10-17T08:10:51.173Z,17.60
2022-10-17T08:13:22.945Z,17.70
2022-10-17T08:15:52.684Z,17.80
2022-10-17T08:18:22.980Z,17.80
2022-10-17T08:20:56.720Z,17.80
2022-10-17T08:23:30.186Z,17.90
2022-10-17T08:26:03.068Z,18.00
2022-10-17T08:28:35.555Z,18.10
2022-10-17T08:31:04.835Z,18.20
2022-10-17T08:33:35.030Z,18.40
2022-10-17T08:36:05.918Z,18.50
2022-10-17T08:38:38.499Z,18.70
2022-10-17T08:41:23.757Z,18.80
2022-10-17T08:44:04.951Z,18.90
2022-10-17T08:46:37.817Z,19.10
2022-10-17T08:49:12.663Z,19.30
2022-10-17T08:52:03.059Z,19.50
2022-10-17T08:54:39.962Z,19.70
2022-10-17T08:57:13.332Z,19.80
2022-10-17T08:59:52.048Z,19.70
2022-10-17T09:02:38.691Z,19.80
2022-10-17T09:05:38.969Z,19.90
2022-10-17T09:08:19.820Z,20.10
2022-10-17T09:11:05.354Z,20.10
2022-10-17T09:13:50.013Z,20.10
2022-10-17T09:16:40.793Z,20.10
2022-10-17T09:19:20.753Z,20.30
2022-10-17T09:21:55.002Z,20.50
2022-10-17T09:24:32.160Z,20.50
2022-10-17T09:27:01.193Z,20.60
2022-10-17T09:29:37.893Z,20.80
2022-10-17T09:32:19.251Z,20.80
2022-10-17T09:34:49.623Z,21.00
2022-10-17T09:37:31.324Z,21.20
2022-10-17T09:40:01.401Z,21.40
2022-10-17T09:42:36.094Z,21.50
2022-10-17T09:45:24.779Z,21.50
2022-10-17T09:48:02.108Z,21.40
2022-10-17T09:50:35.034Z,21.30
2022-10-17T09:53:10.794Z,21.30
2022-10-17T09:55:47.017Z,21.40
2022-10-17T09:58:17.797Z,21.40
2022-10-17T10:00:49.023Z,21.40
2022-10-17T10:03:23.209Z,21.40
2022-10-17T10:06:05.427Z,21.50
2022-10-17T10:08:49.979Z,21.50
2022-10-17T10:11:20.307Z,21.70
2022-10-17T10:13:52.109Z,21.80
2022-10-17T10:16:26.106Z,22.00
2022-10-17T10:18:57.629Z,22.20
2022-10-17T10:21:30.628Z,22.40
2022-10-17T10:24:10.501Z,22.40
2022-10-17T10:26:44.990Z,22.60
2022-10-17T10:29:24.613Z,22.80
2022-10-17T10:31:55.263Z,22.80
2022-10-17T10:34:30.047Z,22.90
2022-10-17T10:37:03.594Z,23.00
2022-10-17T10:39:41.622Z,23.20
2022-10-17T10:42:25.774Z,23.30
2022-10-17T10:44:59.256Z,23.30
2022-10-17T10:47:31.569Z,23.40
2022-10-17T10:50:27.345Z,23.60
2022-10-17T10:53:07.905Z,23.80
2022-10-17T10:55:42.942Z,23.90
2022-10-17T10:58:35.961Z,23.70
2022-10-17T11:01:14.820Z,23.80
2022-10-17T11:03:50.245Z,23.80
2022-10-17T11:06:27.557Z,24.00
2022-10-17T11:09:08.019Z,23.80
2022-10-17T11:11:42.562Z,23.90
2022-10-17T11:14:18.509Z,24.00
2022-10-17T11:16:52.165Z,24.30
2022-10-17T11:19:26.722Z,24.30
2022-10-17T11:22:09.855Z,24.40
2022-10-17T11:24:42.725Z,24.70
2022-10-17T11:27:12.851Z,24.80
2022-10-17T11:29:43.794Z,24.80
2022-10-17T11:32:20.873Z,24.60
2022-10-17T11:34:55.991Z,24.70
2022-10-17T11:37:31.773Z,24.60
2022-10-17T11:40:06.477Z,24.70
2022-10-17T11:42:41.738Z,24.80
2022-10-17T11:45:16.539Z,24.90
2022-10-17T11:47:51.715Z,24.80
2022-10-17T11:53:23.418Z,24.70
2022-10-17T11:55:55.078Z,24.70
2022-10-17T11:58:37.446Z,24.70
2022-10-17T12:01:16.381Z,24.90
2022-10-17T12:04:01.607Z,24.70
2022-10-17T12:06:44.369Z,24.40
2022-10-17T12:09:27.705Z,24.30
2022-10-17T12:12:00.539Z,24.50
2022-10-17T12:14:43.298Z,24.30
2022-10-17T12:17:29.484Z,24.20
2022-10-17T12:20:27.546Z,24.00
2022-10-17T12:23:00.873Z,23.90
2022-10-17T12:25:35.327Z,24.10
2022-10-17T12:28:16.077Z,24.20
2022-10-17T12:30:54.683Z,24.00
2022-10-17T12:33:26.918Z,24.10
2022-10-17T12:36:25.975Z,24.20
2022-10-17T12:39:32.833Z,24.10
2022-10-17T12:42:04.285Z,24.10
2022-10-17T12:44:40.336Z,24.20
2022-10-17T12:47:30.300Z,23.90
2022-10-17T12:50:01.157Z,23.70
2022-10-17T12:53:02.643Z,23.80
2022-10-17T12:55:38.567Z,24.00
2022-10-17T12:58:17.702Z,24.00
2022-10-17T13:01:23.030Z,23.90
2022-10-17T13:03:54.796Z,24.00
2022-10-17T13:06:25.847Z,24.30
2022-10-17T13:09:03.913Z,24.50
2022-10-17T13:11:37.246Z,24.70
2022-10-17T13:14:15.670Z,24.40
2022-10-17T13:16:57.536Z,24.30
2022-10-17T13:19:30.334Z,24.10
2022-10-17T13:22:06.320Z,24.30
2022-10-17T13:24:38.884Z,24.40
2022-10-17T13:27:23.138Z,24.40
2022-10-17T13:29:56.213Z,24.40
2022-10-17T13:32:28.376Z,24.60
2022-10-17T13:35:12.706Z,24.50
2022-10-17T13:37:45.223Z,24.10
2022-10-17T13:40:40.727Z,24.10
2022-10-17T13:43:15.982Z,24.00
2022-10-17T13:45:49.642Z,24.00
2022-10-17T13:48:24.990Z,23.50
2022-10-17T13:51:01.811Z,23.40
2022-10-17T13:53:35.265Z,23.60
2022-10-17T13:56:27.263Z,23.60
2022-10-17T13:59:00.459Z,23.50
2022-10-17T14:01:33.816Z,23.30
2022-10-17T14:04:19.494Z,23.30
2022-10-17T14:06:52.691Z,23.30
2022-10-17T14:09:28.189Z,23.40
2022-10-17T14:12:03.051Z,23.40
2022-10-17T14:14:51.727Z,23.20
2022-10-17T14:17:29.896Z,23.00
2022-10-17T14:20:40.446Z,23.00
2022-10-17T14:23:20.896Z,22.90
2022-10-17T14:25:44.402Z,22.90
2022-10-17T14:28:18.547Z,22.90
2022-10-17T14:30:56.714Z,23.00
2022-10-17T14:33:31.472Z,23.10
2022-10-17T14:36:03.574Z,22.90
2022-10-17T14:38:36.034Z,22.80
2022-10-17T14:41:41.427Z,22.80
2022-10-17T14:44:01.736Z,22.70
2022-10-17T14:46:32.370Z,22.40
2022-10-17T14:49:06.582Z,22.40
2022-10-17T14:51:50.237Z,22.20
2022-10-17T14:54:29.788Z,22.00
2022-10-17T14:56:59.909Z,21.90
2022-10-17T14:59:52.846Z,21.80
2022-10-17T15:02:20.028Z,21.60
2022-10-17T15:04:51.456Z,21.40
2022-10-17T15:07:22.527Z,21.20
2022-10-17T15:09:59.221Z,21.10
2022-10-17T15:12:31.869Z,20.90
2022-10-17T15:15:01.970Z,20.80
2022-10-17T15:17:34.532Z,20.80
2022-10-17T15:20:13.499Z,20.70
2022-10-17T15:22:43.832Z,20.70
2022-10-17T15:25:13.948Z,20.70
2022-10-17T15:27:43.753Z,20.60
2022-10-17T15:30:26.672Z,20.30
2022-10-17T15:32:57.080Z,20.20
2022-10-17T15:35:27.828Z,20.10
2022-10-17T15:38:03.896Z,20.10
2022-10-17T15:40:34.202Z,20.00
2022-10-17T15:43:04.225Z,20.00
2022-10-17T15:45:36.199Z,20.00
2022-10-17T15:48:09.091Z,19.90
2022-10-17T15:50:40.327Z,19.70
2022-10-17T15:53:14.960Z,19.60
2022-10-17T15:55:45.280Z,19.40
2022-10-17T15:58:19.719Z,19.30
2022-10-17T16:00:54.383Z,19.20
2022-10-17T16:03:25.304Z,19.10
2022-10-17T16:05:56.511Z,19.00
2022-10-17T16:08:26.938Z,18.90
2022-10-17T16:10:57.686Z,18.80
2022-10-17T16:13:29.331Z,18.70
2022-10-17T16:15:59.447Z,18.70
2022-10-17T16:18:32.773Z,18.60
2022-10-17T16:21:04.096Z,18.50
2022-10-17T16:23:36.640Z,18.40
2022-10-17T16:26:09.462Z,18.30
2022-10-17T16:28:45.127Z,18.30
2022-10-17T16:31:21.177Z,18.20
2022-10-17T16:33:54.128Z,18.10
2022-10-17T16:36:28.359Z,18.10
2022-10-17T16:39:03.912Z,18.00
2022-10-17T16:41:37.930Z,18.00
2022-10-17T16:44:09.473Z,18.00
2022-10-17T16:46:40.642Z,18.10
2022-10-17T16:49:12.298Z,18.10
2022-10-17T16:51:44.135Z,18.10
2022-10-17T16:54:24.654Z,18.00
2022-10-17T16:56:55.656Z,18.00
2022-10-17T16:59:39.559Z,17.90
2022-10-17T17:02:15.199Z,17.80
2022-10-17T17:04:50.053Z,17.70
2022-10-17T17:07:24.628Z,17.80
2022-10-17T17:09:56.256Z,17.70
2022-10-17T17:12:26.274Z,17.60
2022-10-17T17:14:57.010Z,17.60
2022-10-17T17:17:36.795Z,17.50
2022-10-17T17:20:18.748Z,17.50
2022-10-17T17:22:52.056Z,17.50
2022-10-17T17:25:35.499Z,17.50
2022-10-17T17:28:17.077Z,17.40
2022-10-17T17:30:47.183Z,17.30
2022-10-17T17:33:17.169Z,17.40
2022-10-17T17:35:47.117Z,17.40
2022-10-17T17:38:19.624Z,17.40
2022-10-17T17:40:54.832Z,17.50
2022-10-17T17:43:25.446Z,17.50
2022-10-17T17:46:04.469Z,17.50
2022-10-17T17:48:37.576Z,17.40
2022-10-17T17:51:15.149Z,17.40
2022-10-17T17:53:47.007Z,17.40
2022-10-17T17:56:19.171Z,17.40
2022-10-17T17:59:46.538Z,17.30
2022-10-17T18:01:59.599Z,17.30
2022-10-17T18:04:46.400Z,17.30
2022-10-17T18:07:16.740Z,17.40
2022-10-17T18:09:48.147Z,17.40
2022-10-17T18:12:21.568Z,17.40
2022-10-17T18:14:52.156Z,17.40
2022-10-17T18:17:22.746Z,17.30
2022-10-17T18:19:53.919Z,17.30
2022-10-17T18:22:28.223Z,17.20
2022-10-17T18:24:59.770Z,17.20
2022-10-17T18:27:30.781Z,17.20
2022-10-17T18:30:05.162Z,17.10
2022-10-17T18:32:43.951Z,17.10
2022-10-17T18:35:20.313Z,17.10
2022-10-17T18:37:54.206Z,17.10
2022-10-17T18:40:27.885Z,17.10
2022-10-17T18:43:00.910Z,17.10
2022-10-17T18:45:35.176Z,17.00
2022-10-17T18:48:05.326Z,16.90
2022-10-17T18:50:54.414Z,16.80
2022-10-17T18:53:24.447Z,16.70
2022-10-17T18:55:57.436Z,16.70
2022-10-17T18:58:33.919Z,16.70
2022-10-17T19:01:08.065Z,16.70
2022-10-17T19:03:40.551Z,16.60
2022-10-17T19:06:18.484Z,16.60
2022-10-17T19:08:49.107Z,16.60
2022-10-17T19:11:23.322Z,16.50
2022-10-17T19:13:55.583Z,16.50
2022-10-17T19:16:27.267Z,16.50
2022-10-17T19:19:02.366Z,16.60
2022-10-17T19:21:32.714Z,16.60
2022-10-17T19:24:05.117Z,16.60
2022-10-17T19:26:44.846Z,16.60
2022-10-17T19:29:16.894Z,16.60
2022-10-17T19:31:47.775Z,16.60
2022-10-17T19:34:18.698Z,16.50
2022-10-17T19:36:50.122Z,16.50
2022-10-17T19:39:29.216Z,16.50
2022-10-17T19:42:05.956Z,16.60
2022-10-17T19:44:38.914Z,16.70
2022-10-17T19:47:10.775Z,16.70
2022-10-17T19:49:40.696Z,16.70
2022-10-17T19:52:21.869Z,16.70
2022-10-17T19:54:51.696Z,16.70
2022-10-17T19:57:26.927Z,16.60
2022-10-17T19:59:57.047Z,16.50
2022-10-17T20:02:28.173Z,16.40
2022-10-17T20:05:17.189Z,16.30
2022-10-17T20:07:53.104Z,16.20
2022-10-17T20:10:24.256Z,16.20
2022-10-17T20:12:58.936Z,16.10
2022-10-17T20:15:28.876Z,16.10
2022-10-17T20:17:59.275Z,16.00
2022-10-17T20:20:37.440Z,16.00
2022-10-17T20:23:08.445Z,15.90
2022-10-17T20:25:38.447Z,15.90
2022-10-17T20:28:17.018Z,16.00
2022-10-17T20:30:57.679Z,16.00
2022-10-17T20:33:32.055Z,16.00
2022-10-17T20:36:04.984Z,16.00
2022-10-17T20:38:37.161Z,16.00
2022-10-17T20:41:09.523Z,15.90
2022-10-17T20:43:44.645Z,15.90
2022-10-17T20:46:35.214Z,16.00
2022-10-17T20:49:06.991Z,16.00
2022-10-17T20:51:36.919Z,16.00
2022-10-17T20:54:08.052Z,16.00
2022-10-17T20:56:40.032Z,16.10
2022-10-17T20:59:17.142Z,16.10
2022-10-17T21:01:47.815Z,16.10
2022-10-17T21:04:44.606Z,16.00
2022-10-17T21:07:11.645Z,16.00
2022-10-17T21:09:41.437Z,16.00
2022-10-17T21:12:15.213Z,16.10
2022-10-17T21:14:53.767Z,16.20
2022-10-17T21:17:24.568Z,16.30
2022-10-17T21:19:54.738Z,16.30
2022-10-17T21:22:25.573Z,16.40
2022-10-17T21:24:57.300Z,16.40
2022-10-17T21:27:29.070Z,16.30
2022-10-17T21:30:00.883Z,16.30
2022-10-17T21:32:40.415Z,16.40
2022-10-17T21:35:21.167Z,16.40
2022-10-17T21:37:53.416Z,16.30
2022-10-17T21:40:23.257Z,16.30
2022-10-17T21:42:53.334Z,16.30
2022-10-17T21:45:26.138Z,16.30
2022-10-17T21:48:13.714Z,16.20
2022-10-17T21:50:44.127Z,16.30
2022-10-17T21:53:14.271Z,16.30
2022-10-17T21:55:44.364Z,16.30
2022-10-17T21:58:14.526Z,16.40
2022-10-17T22:00:48.177Z,16.40
2022-10-17T22:03:19.831Z,16.40
2022-10-17T22:05:49.958Z,16.50
2022-10-17T22:08:20.188Z,16.40
2022-10-17T22:10:50.112Z,16.40
2022-10-17T22:13:22.882Z,16.40
2022-10-17T22:16:07.029Z,16.30
2022-10-17T22:18:37.362Z,16.30
2022-10-17T22:21:09.302Z,16.20
2022-10-17T22:23:41.337Z,16.10
2022-10-17T22:26:12.606Z,16.10
2022-10-17T22:28:44.869Z,16.10
2022-10-17T22:31:16.052Z,16.10
2022-10-17T22:33:45.852Z,16.20
2022-10-17T22:36:15.971Z,16.20
2022-10-17T22:38:46.106Z,16.30
2022-10-17T22:41:15.909Z,16.20
2022-10-17T22:43:47.711Z,16.20
2022-10-17T22:46:19.017Z,16.10
2022-10-17T22:48:49.439Z,16.10
2022-10-17T22:51:19.611Z,16.10
2022-10-17T22:53:49.581Z,16.00
2022-10-17T22:56:21.955Z,16.00
2022-10-17T22:58:52.167Z,16.00
2022-10-17T23:01:25.636Z,16.00
2022-10-17T23:04:00.628Z,16.00
2022-10-17T23:06:33.091Z,16.00
2022-10-17T23:09:07.340Z,16.00
2022-10-17T23:11:37.617Z,16.00
2022-10-17T23:14:07.817Z,16.00
2022-10-17T23:16:39.153Z,16.00
2022-10-17T23:19:09.654Z,16.00
2022-10-17T23:21:39.401Z,15.90
2022-10-17T23:24:10.046Z,15.90
2022-10-17T23:26:46.052Z,15.90
2022-10-17T23:29:16.353Z,15.90
2022-10-17T23:31:56.714Z,15.90
2022-10-17T23:34:27.195Z,15.80
2022-10-17T23:36:57.571Z,15.80
2022-10-17T23:39:27.765Z,15.80
2022-10-17T23:42:04.868Z,15.80
2022-10-17T23:44:35.102Z,15.80
2022-10-17T23:47:06.853Z,15.80
2022-10-17T23:49:37.914Z,15.80
2022-10-17T23:52:07.735Z,15.80
2022-10-17T23:54:47.111Z,15.80
2022-10-17T23:57:19.273Z,15.70
2022-10-17T23:59:49.217Z,15.70
